createdAt,value
2022-08-08T00:01:18.129Z,67.56
2022-08-08T00:03:56.070Z,67.86
2022-08-08T00:06:36.783Z,67.96
2022-08-08T00:09:15.703Z,67.97
2022-08-08T00:12:06.792Z,67.99
2022-08-08T00:14:59.872Z,68.42
2022-08-08T00:17:58.694Z,68.42
2022-08-08T00:20:37.416Z,68.80
2022-08-08T00:23:10.485Z,69.50
2022-08-08T00:25:46.845Z,69.00
2022-08-08T00:28:35.286Z,68.97
2022-08-08T00:32:20.231Z,68.51
2022-08-08T00:34:35.695Z,68.87
2022-08-08T00:37:16.491Z,68.72
2022-08-08T00:41:10.464Z,68.39
2022-08-08T00:44:10.942Z,68.60
2022-08-08T00:47:23.255Z,68.92
2022-08-08T00:50:22.721Z,69.59
2022-08-08T00:53:01.585Z,69.56
2022-08-08T00:56:11.504Z,70.24
2022-08-08T00:59:18.689Z,69.69
2022-08-08T01:03:15.306Z,70.17
2022-08-08T01:05:59.732Z,70.27
2022-08-08T01:09:36.093Z,70.41
2022-08-08T01:12:36.800Z,70.62
2022-08-08T01:15:53.427Z,69.88
2022-08-08T01:18:52.655Z,69.23
2022-08-08T01:22:11.908Z,69.76
2022-08-08T01:24:58.658Z,69.24
2022-08-08T01:28:06.262Z,69.67
2022-08-08T01:31:10.498Z,69.51
2022-08-08T01:34:32.139Z,68.47
2022-08-08T01:37:57.465Z,67.75
2022-08-08T01:40:28.048Z,68.60
2022-08-08T01:43:08.317Z,67.99
2022-08-08T01:46:04.101Z,68.18
2022-08-08T01:48:57.261Z,69.68
2022-08-08T01:52:53.518Z,69.95
2022-08-08T01:55:45.295Z,68.88
2022-08-08T01:58:04.181Z,68.70
2022-08-08T02:00:57.526Z,69.94
2022-08-08T02:03:54.426Z,70.26
2022-08-08T02:06:45.049Z,70.68
2022-08-08T02:10:02.512Z,69.91
2022-08-08T02:12:24.029Z,70.42
2022-08-08T02:14:59.728Z,70.89
2022-08-08T02:17:42.856Z,69.94
2022-08-08T02:21:02.500Z,69.44
2022-08-08T02:23:19.620Z,71.11
2022-08-08T02:26:00.605Z,71.52
2022-08-08T02:28:51.890Z,71.17
2022-08-08T02:31:57.855Z,71.01
2022-08-08T02:35:08.041Z,70.23
2022-08-08T02:37:52.437Z,70.10
2022-08-08T02:40:38.992Z,69.84
2022-08-08T02:44:42.296Z,69.76
2022-08-08T02:46:46.854Z,70.42
2022-08-08T02:49:50.619Z,70.92
2022-08-08T02:52:51.411Z,71.79
2022-08-08T02:55:48.160Z,71.04
2022-08-08T02:59:26.163Z,72.43
2022-08-08T03:02:36.745Z,72.71
2022-08-08T03:05:46.430Z,72.91
2022-08-08T03:08:52.166Z,72.25
2022-08-08T03:12:02.604Z,72.20
2022-08-08T03:15:57.613Z,72.43
2022-08-08T03:18:07.621Z,72.11
2022-08-08T03:20:46.935Z,72.56
2022-08-08T03:23:21.757Z,72.70
2022-08-08T03:25:52.741Z,73.17
2022-08-08T03:28:29.238Z,74.13
2022-08-08T03:31:13.661Z,72.90
2022-08-08T03:33:56.133Z,72.50
2022-08-08T03:36:30.384Z,72.87
2022-08-08T03:39:14.964Z,73.46
2022-08-08T03:42:13.060Z,73.39
2022-08-08T03:44:35.096Z,74.01
2022-08-08T03:47:14.129Z,73.06
2022-08-08T03:49:58.887Z,73.39
2022-08-08T03:52:34.062Z,73.51
2022-08-08T03:55:55.654Z,74.17
2022-08-08T03:58:30.074Z,73.97
2022-08-08T04:01:02.657Z,74.32
2022-08-08T04:03:58.126Z,74.73
2022-08-08T04:06:30.004Z,74.46
2022-08-08T04:09:08.879Z,74.06
2022-08-08T04:11:59.012Z,74.03
2022-08-08T04:14:34.641Z,74.61
2022-08-08T04:17:15.473Z,74.79
2022-08-08T04:19:52.287Z,75.68
2022-08-08T04:22:24.095Z,76.96
2022-08-08T04:24:52.689Z,77.43
2022-08-08T04:28:02.899Z,76.08
2022-08-08T04:30:18.271Z,75.91
2022-08-08T04:32:50.028Z,76.14
2022-08-08T04:35:20.308Z,74.93
2022-08-08T04:37:51.631Z,75.40
2022-08-08T04:40:24.185Z,75.75
2022-08-08T04:43:00.765Z,75.63
2022-08-08T04:45:29.896Z,74.86
2022-08-08T04:48:00.675Z,76.16
2022-08-08T04:50:37.506Z,76.34
2022-08-08T04:53:14.317Z,75.55
2022-08-08T04:55:56.823Z,76.05
2022-08-08T04:58:26.968Z,76.46
2022-08-08T05:00:55.568Z,76.95
2022-08-08T05:04:11.563Z,77.03
2022-08-08T05:06:18.384Z,77.47
2022-08-08T05:09:02.197Z,76.82
2022-08-08T05:11:38.672Z,76.85
2022-08-08T05:14:11.017Z,76.68
2022-08-08T05:16:52.194Z,76.55
2022-08-08T05:20:11.690Z,74.81
2022-08-08T05:22:17.911Z,74.86
2022-08-08T05:24:48.590Z,74.94
2022-08-08T05:27:17.491Z,74.52
2022-08-08T05:29:50.276Z,74.05
2022-08-08T05:32:24.718Z,73.57
2022-08-08T05:35:04.713Z,73.07
2022-08-08T05:37:52.332Z,73.22
2022-08-08T05:40:28.377Z,73.29
2022-08-08T05:43:02.896Z,74.89
2022-08-08T05:46:03.378Z,75.45
2022-08-08T05:48:34.585Z,74.68
2022-08-08T05:51:14.347Z,73.50
2022-08-08T05:54:24.402Z,73.66
2022-08-08T05:56:42.381Z,73.06
2022-08-08T05:59:59.139Z,72.90
2022-08-08T06:02:40.801Z,72.11
2022-08-08T06:05:33.209Z,72.07
2022-08-08T06:08:14.498Z,70.03
2022-08-08T06:10:55.343Z,70.94
2022-08-08T06:13:24.143Z,71.47
2022-08-08T06:15:55.192Z,70.70
2022-08-08T06:18:28.157Z,70.12
2022-08-08T06:20:58.111Z,71.68
2022-08-08T06:23:53.352Z,71.73
2022-08-08T06:26:38.675Z,70.15
2022-08-08T06:29:26.916Z,70.18
2022-08-08T06:32:11.428Z,69.69
2022-08-08T06:34:52.516Z,68.91
2022-08-08T06:37:40.115Z,67.94
2022-08-08T06:40:16.278Z,67.22
2022-08-08T06:42:53.965Z,66.46
2022-08-08T06:45:23.626Z,66.95
2022-08-08T06:48:01.285Z,66.55
2022-08-08T06:50:33.599Z,66.24
2022-08-08T06:53:17.269Z,65.92
2022-08-08T06:56:02.389Z,65.23
2022-08-08T06:58:33.175Z,64.16
2022-08-08T07:01:11.722Z,64.87
2022-08-08T07:04:39.041Z,63.75
2022-08-08T07:06:51.734Z,63.24
2022-08-08T07:09:21.981Z,63.13
2022-08-08T07:11:59.834Z,63.46
2022-08-08T07:14:35.646Z,63.24
2022-08-08T07:17:09.423Z,62.53
2022-08-08T07:19:51.089Z,62.40
2022-08-08T07:22:28.815Z,61.46
2022-08-08T07:25:06.871Z,60.61
2022-08-08T07:28:01.777Z,59.84
2022-08-08T07:30:27.591Z,60.44
2022-08-08T07:32:59.569Z,60.22
2022-08-08T07:35:31.000Z,60.14
2022-08-08T07:38:10.546Z,59.98
2022-08-08T07:40:50.455Z,59.95
2022-08-08T07:43:32.158Z,60.96
2022-08-08T07:46:23.088Z,60.87
2022-08-08T07:48:53.177Z,60.07
2022-08-08T07:51:23.972Z,60.31
2022-08-08T07:54:26.665Z,60.61
2022-08-08T07:57:08.956Z,59.01
2022-08-08T07:59:59.618Z,59.68
2022-08-08T08:02:38.727Z,60.46
2022-08-08T08:05:15.014Z,60.51
2022-08-08T08:07:45.867Z,60.47
2022-08-08T08:10:30.795Z,60.38
2022-08-08T08:13:25.296Z,60.52
2022-08-08T08:16:17.124Z,60.34
2022-08-08T08:18:55.490Z,59.85
2022-08-08T08:21:44.208Z,59.75
2022-08-08T08:24:16.258Z,59.14
2022-08-08T08:26:52.939Z,59.55
2022-08-08T08:29:24.318Z,59.88
2022-08-08T08:31:59.093Z,59.88
2022-08-08T08:34:33.900Z,59.56
2022-08-08T08:37:03.333Z,58.95
2022-08-08T08:39:59.827Z,59.43
2022-08-08T08:42:29.446Z,59.00
2022-08-08T08:45:01.694Z,60.54
2022-08-08T08:47:52.916Z,60.85
2022-08-08T08:50:33.581Z,61.36
2022-08-08T08:53:27.996Z,60.50
2022-08-08T08:56:01.904Z,60.79
2022-08-08T08:58:41.354Z,60.71
2022-08-08T09:01:13.564Z,60.46
2022-08-08T09:03:50.835Z,60.56
2022-08-08T09:06:26.293Z,60.13
2022-08-08T09:09:02.873Z,59.09
2022-08-08T09:11:47.567Z,58.99
2022-08-08T09:14:27.364Z,59.00
2022-08-08T09:16:55.926Z,58.08
2022-08-08T09:21:54.094Z,57.96
2022-08-08T09:22:25.915Z,57.77
2022-08-08T09:24:58.618Z,58.98
2022-08-08T09:27:56.812Z,57.68
2022-08-08T09:30:20.234Z,56.95
2022-08-08T09:33:54.873Z,56.46
2022-08-08T09:35:50.016Z,57.87
2022-08-08T09:38:32.918Z,57.26
2022-08-08T09:41:07.437Z,57.68
2022-08-08T09:44:05.409Z,57.39
2022-08-08T09:46:45.088Z,56.38
2022-08-08T09:49:40.956Z,56.39
2022-08-08T09:52:09.193Z,55.05
2022-08-08T09:54:46.105Z,55.98
2022-08-08T09:57:25.007Z,56.56
2022-08-08T10:00:28.831Z,56.70
2022-08-08T10:02:46.015Z,55.02
2022-08-08T10:05:22.947Z,55.84
2022-08-08T10:08:00.379Z,56.76
2022-08-08T10:10:31.920Z,54.63
2022-08-08T10:13:06.039Z,53.93
2022-08-08T10:16:01.119Z,53.40
2022-08-08T10:18:34.572Z,54.38
2022-08-08T10:21:22.958Z,55.14
2022-08-08T10:24:00.046Z,55.35
2022-08-08T10:26:57.268Z,55.87
2022-08-08T10:29:25.123Z,56.76
2022-08-08T10:32:17.443Z,56.19
2022-08-08T10:35:01.455Z,57.45
2022-08-08T10:37:34.703Z,56.85
2022-08-08T10:40:16.100Z,58.07
2022-08-08T10:42:46.769Z,57.93
2022-08-08T10:45:17.214Z,57.79
2022-08-08T10:47:55.313Z,56.38
2022-08-08T10:50:33.245Z,54.39
2022-08-08T10:53:07.532Z,55.11
2022-08-08T10:55:46.324Z,55.42
2022-08-08T10:58:16.089Z,55.67
2022-08-08T11:00:53.106Z,56.94
2022-08-08T11:04:00.970Z,56.71
2022-08-08T11:06:34.993Z,55.22
2022-08-08T11:09:15.107Z,53.61
2022-08-08T11:12:06.317Z,52.70
2022-08-08T11:14:36.962Z,52.67
2022-08-08T11:17:15.664Z,53.02
2022-08-08T11:19:46.577Z,53.78
2022-08-08T11:22:26.986Z,52.84
2022-08-08T11:24:58.663Z,52.61
2022-08-08T11:27:37.194Z,52.55
2022-08-08T11:30:24.195Z,52.51
2022-08-08T11:32:56.918Z,51.59
2022-08-08T11:35:38.608Z,50.59
2022-08-08T11:38:36.497Z,50.62
2022-08-08T11:41:04.728Z,51.56
2022-08-08T11:43:38.823Z,52.91
2022-08-08T11:46:13.973Z,52.97
2022-08-08T11:48:48.042Z,53.51
2022-08-08T11:51:38.185Z,54.19
2022-08-08T11:54:26.875Z,54.48
2022-08-08T11:57:17.047Z,53.31
2022-08-08T12:00:01.705Z,54.55
2022-08-08T12:02:48.571Z,55.15
2022-08-08T12:05:22.796Z,55.31
2022-08-08T12:07:55.812Z,54.01
2022-08-08T12:10:27.579Z,53.64
2022-08-08T12:13:03.146Z,54.17
2022-08-08T12:15:42.450Z,54.30
2022-08-08T12:18:25.006Z,52.53
2022-08-08T12:20:56.680Z,52.62
2022-08-08T12:23:43.377Z,53.36
2022-08-08T12:26:27.833Z,53.29
2022-08-08T12:29:25.838Z,53.24
2022-08-08T12:32:13.274Z,52.66
2022-08-08T12:34:44.075Z,52.52
2022-08-08T12:37:22.513Z,52.91
2022-08-08T12:40:01.043Z,52.65
2022-08-08T12:42:33.671Z,52.55
2022-08-08T12:45:20.231Z,52.07
2022-08-08T12:48:09.665Z,52.35
2022-08-08T12:50:46.924Z,51.98
2022-08-08T12:53:30.137Z,52.68
2022-08-08T12:56:19.408Z,52.85
2022-08-08T12:58:55.263Z,53.42
2022-08-08T13:01:36.812Z,53.54
2022-08-08T13:04:18.827Z,53.50
2022-08-08T13:06:55.995Z,53.63
2022-08-08T13:09:43.247Z,53.64
2022-08-08T13:12:29.946Z,52.73
2022-08-08T13:15:03.360Z,52.94
2022-08-08T13:18:09.716Z,53.26
2022-08-08T13:20:22.161Z,53.12
2022-08-08T13:22:55.932Z,52.15
2022-08-08T13:25:36.862Z,52.86
2022-08-08T13:28:05.618Z,52.53
2022-08-08T13:30:35.600Z,53.50
2022-08-08T13:33:05.812Z,53.85
2022-08-08T13:35:40.479Z,53.45
2022-08-08T13:38:13.389Z,53.50
2022-08-08T13:40:45.050Z,52.66
2022-08-08T13:43:16.039Z,52.20
2022-08-08T13:45:47.146Z,52.48
2022-08-08T13:48:17.348Z,53.10
2022-08-08T13:50:58.044Z,52.73
2022-08-08T13:53:53.388Z,53.33
2022-08-08T13:56:44.547Z,52.83
2022-08-08T13:59:32.986Z,52.97
2022-08-08T14:02:07.734Z,52.50
2022-08-08T14:04:52.897Z,52.60
2022-08-08T14:07:23.453Z,52.38
2022-08-08T14:10:04.904Z,52.38
2022-08-08T14:12:46.859Z,52.63
2022-08-08T14:15:31.178Z,52.83
2022-08-08T14:18:35.932Z,52.94
2022-08-08T14:21:08.119Z,53.40
2022-08-08T14:24:04.199Z,54.34
2022-08-08T14:26:33.534Z,55.33
2022-08-08T14:29:05.845Z,55.71
2022-08-08T14:32:09.343Z,56.07
2022-08-08T14:34:39.060Z,55.98
2022-08-08T14:37:08.531Z,56.64
2022-08-08T14:39:48.473Z,56.11
2022-08-08T14:42:17.772Z,56.10
2022-08-08T14:44:57.338Z,56.77
2022-08-08T14:47:26.190Z,54.71
2022-08-08T14:50:15.240Z,54.24
2022-08-08T14:52:54.902Z,53.72
2022-08-08T14:55:35.648Z,53.60
2022-08-08T14:58:19.854Z,53.69
2022-08-08T15:00:50.690Z,53.49
2022-08-08T15:03:19.153Z,53.78
2022-08-08T15:05:53.822Z,53.06
2022-08-08T15:08:35.385Z,53.48
2022-08-08T15:11:10.432Z,53.53
2022-08-08T15:14:01.147Z,53.64
2022-08-08T15:16:34.353Z,53.42
2022-08-08T15:19:03.889Z,53.42
2022-08-08T15:21:34.436Z,53.16
2022-08-08T15:24:14.009Z,53.65
2022-08-08T15:26:44.313Z,53.83
2022-08-08T15:29:22.544Z,53.56
2022-08-08T15:32:17.736Z,54.37
2022-08-08T15:34:41.223Z,55.09
2022-08-08T15:37:12.905Z,53.68
2022-08-08T15:39:41.811Z,49.86
2022-08-08T15:42:17.809Z,49.09
2022-08-08T15:44:59.123Z,47.87
2022-08-08T15:47:27.379Z,48.28
2022-08-08T15:49:55.735Z,47.83
2022-08-08T15:52:25.924Z,47.18
2022-08-08T15:54:54.541Z,47.38
2022-08-08T15:57:23.684Z,48.03
2022-08-08T16:00:17.987Z,47.66
2022-08-08T16:02:44.565Z,48.78
2022-08-08T16:05:20.690Z,49.78
2022-08-08T16:07:54.009Z,52.01
2022-08-08T16:13:08.671Z,54.12
2022-08-08T16:13:45.231Z,55.27
2022-08-08T16:16:08.984Z,55.48
2022-08-08T16:18:42.710Z,55.74
2022-08-08T16:21:26.049Z,54.59
2022-08-08T16:23:56.444Z,55.74
2022-08-08T16:26:34.037Z,56.48
2022-08-08T16:29:07.790Z,56.66
2022-08-08T16:31:37.712Z,56.47
2022-08-08T16:34:07.201Z,56.34
2022-08-08T16:36:37.786Z,56.68
2022-08-08T16:39:09.691Z,54.91
2022-08-08T16:41:51.260Z,53.00
2022-08-08T16:44:27.402Z,51.91
2022-08-08T16:47:17.029Z,51.93
2022-08-08T16:49:47.719Z,52.55
2022-08-08T16:55:00.270Z,52.44
2022-08-08T16:55:33.954Z,53.15
2022-08-08T16:58:15.645Z,53.61
2022-08-08T17:00:49.042Z,53.96
2022-08-08T17:03:25.079Z,54.49
2022-08-08T17:06:35.324Z,55.19
2022-08-08T17:08:57.180Z,55.66
2022-08-08T17:11:28.391Z,55.75
2022-08-08T17:14:18.854Z,55.98
2022-08-08T17:16:51.829Z,56.52
2022-08-08T17:19:28.717Z,57.17
2022-08-08T17:21:57.760Z,57.13
2022-08-08T17:24:30.183Z,56.47
2022-08-08T17:27:02.392Z,56.86
2022-08-08T17:29:34.072Z,57.35
2022-08-08T17:32:05.914Z,57.63
2022-08-08T17:35:04.494Z,58.20
2022-08-08T17:37:25.863Z,58.82
2022-08-08T17:40:12.298Z,59.07
2022-08-08T17:42:47.209Z,59.51
2022-08-08T17:45:23.721Z,59.69
2022-08-08T17:47:54.581Z,59.70
2022-08-08T17:50:24.969Z,59.80
2022-08-08T17:52:53.807Z,59.79
2022-08-08T17:56:07.153Z,59.32
2022-08-08T17:58:15.865Z,59.46
2022-08-08T18:00:54.350Z,58.76
2022-08-08T18:03:26.449Z,58.45
2022-08-08T18:05:55.373Z,57.61
2022-08-08T18:08:37.942Z,57.81
2022-08-08T18:11:14.999Z,58.12
2022-08-08T18:13:47.245Z,57.96
2022-08-08T18:16:23.211Z,57.45
2022-08-08T18:18:55.894Z,57.90
2022-08-08T18:22:00.079Z,57.56
2022-08-08T18:24:18.722Z,57.53
2022-08-08T18:26:54.890Z,57.83
2022-08-08T18:29:33.247Z,58.06
2022-08-08T18:32:04.164Z,58.16
2022-08-08T18:34:33.689Z,58.68
2022-08-08T18:37:07.940Z,58.95
2022-08-08T18:39:37.845Z,59.10
2022-08-08T18:42:13.820Z,59.15
2022-08-08T18:44:54.972Z,59.53
2022-08-08T18:47:25.939Z,60.02
2022-08-08T18:49:58.279Z,59.92
2022-08-08T18:52:29.734Z,59.96
2022-08-08T18:55:09.481Z,60.34
2022-08-08T18:57:41.490Z,60.26
2022-08-08T19:00:20.622Z,59.86
2022-08-08T19:02:57.050Z,59.47
2022-08-08T19:05:30.702Z,59.46
2022-08-08T19:08:24.092Z,58.95
2022-08-08T19:10:56.758Z,59.54
2022-08-08T19:13:25.446Z,60.25
2022-08-08T19:16:18.765Z,60.12
2022-08-08T19:18:54.556Z,60.24
2022-08-08T19:21:30.495Z,59.28
2022-08-08T19:23:59.908Z,59.42
2022-08-08T19:26:30.155Z,59.00
2022-08-08T19:28:59.736Z,59.25
2022-08-08T19:31:31.613Z,59.29
2022-08-08T19:34:35.696Z,59.28
2022-08-08T19:36:55.313Z,58.38
2022-08-08T19:39:26.706Z,58.00
2022-08-08T19:42:05.294Z,57.89
2022-08-08T19:44:43.061Z,57.31
2022-08-08T19:47:16.029Z,57.26
2022-08-08T19:49:59.744Z,57.94
2022-08-08T19:52:35.512Z,58.16
2022-08-08T19:55:11.238Z,59.48
2022-08-08T19:57:41.267Z,59.58
2022-08-08T20:00:28.995Z,59.37
2022-08-08T20:03:01.275Z,58.01
2022-08-08T20:06:13.472Z,57.93
2022-08-08T20:08:28.950Z,57.57
2022-08-08T20:11:00.300Z,57.09
2022-08-08T20:14:32.141Z,58.87
2022-08-08T20:16:17.218Z,57.42
2022-08-08T20:18:53.058Z,57.78
2022-08-08T20:21:24.920Z,57.25
2022-08-08T20:23:58.073Z,57.73
2022-08-08T20:26:30.250Z,57.06
2022-08-08T20:29:03.614Z,56.08
2022-08-08T20:31:47.044Z,56.93
2022-08-08T20:34:30.983Z,57.26
2022-08-08T20:37:02.611Z,56.75
2022-08-08T20:39:39.375Z,57.79
2022-08-08T20:42:28.494Z,57.05
2022-08-08T20:44:58.742Z,58.43
2022-08-08T20:47:36.291Z,58.85
2022-08-08T20:50:10.051Z,59.34
2022-08-08T20:52:40.058Z,59.58
2022-08-08T20:55:22.828Z,59.90
2022-08-08T20:57:54.301Z,59.24
2022-08-08T21:00:26.771Z,59.56
2022-08-08T21:02:55.189Z,59.35
2022-08-08T21:05:31.654Z,59.61
2022-08-08T21:08:35.996Z,60.10
2022-08-08T21:10:50.240Z,60.28
2022-08-08T21:13:18.462Z,59.82
2022-08-08T21:16:05.232Z,59.72
2022-08-08T21:18:35.255Z,59.99
2022-08-08T21:21:20.765Z,60.12
2022-08-08T21:24:09.329Z,59.88
2022-08-08T21:26:47.674Z,58.94
2022-08-08T21:29:20.204Z,60.56
2022-08-08T21:31:58.643Z,60.46
2022-08-08T21:34:30.088Z,60.98
2022-08-08T21:37:05.250Z,61.38
2022-08-08T21:39:54.933Z,61.27
2022-08-08T21:42:25.188Z,61.56
2022-08-08T21:44:59.149Z,61.48
2022-08-08T21:48:20.133Z,61.52
2022-08-08T21:50:31.003Z,61.34
2022-08-08T21:54:27.116Z,60.67
2022-08-08T21:56:20.066Z,59.26
2022-08-08T21:58:38.971Z,60.11
2022-08-08T22:01:28.332Z,59.83
2022-08-08T22:04:00.645Z,58.81
2022-08-08T22:06:32.027Z,59.42
2022-08-08T22:09:02.839Z,59.14
2022-08-08T22:11:55.038Z,61.68
2022-08-08T22:14:26.528Z,60.27
2022-08-08T22:16:55.380Z,60.33
2022-08-08T22:19:24.360Z,58.52
2022-08-08T22:21:57.272Z,60.42
2022-08-08T22:24:28.642Z,61.78
2022-08-08T22:27:02.457Z,62.15
2022-08-08T22:29:58.839Z,60.39
2022-08-08T22:32:20.279Z,61.82
2022-08-08T22:34:51.097Z,62.17
2022-08-08T22:37:49.926Z,62.69
2022-08-08T22:40:11.697Z,62.06
2022-08-08T22:42:47.368Z,61.68
2022-08-08T22:45:16.830Z,61.64
2022-08-08T22:47:47.023Z,62.10
2022-08-08T22:50:25.477Z,62.18
2022-08-08T22:54:15.845Z,61.25
2022-08-08T22:55:59.603Z,60.12
2022-08-08T22:58:33.808Z,59.86
2022-08-08T23:01:16.498Z,59.71
2022-08-08T23:03:53.317Z,60.64
2022-08-08T23:06:23.191Z,61.49
2022-08-08T23:08:55.410Z,61.56
2022-08-08T23:11:58.156Z,61.79
2022-08-08T23:14:17.829Z,62.33
2022-08-08T23:16:54.564Z,63.20
2022-08-08T23:19:26.354Z,63.63
2022-08-08T23:21:54.531Z,64.16
2022-08-08T23:24:23.513Z,64.41
2022-08-08T23:26:56.170Z,64.58
2022-08-08T23:29:25.619Z,64.74
2022-08-08T23:31:54.284Z,65.00
2022-08-08T23:34:23.290Z,65.51
2022-08-08T23:36:58.012Z,65.94
2022-08-08T23:39:32.349Z,66.55
2022-08-08T23:42:11.940Z,66.78
2022-08-08T23:44:40.091Z,67.17
2022-08-08T23:49:00.210Z,67.09
2022-08-08T23:50:02.872Z,67.62
2022-08-08T23:52:33.910Z,68.05
2022-08-08T23:55:19.515Z,68.36
2022-08-08T23:57:52.843Z,68.44
